createdAt,value
2023-02-28T00:00:19.057Z,1022.54
2023-02-28T00:01:19.023Z,1022.58
2023-02-28T00:02:19.084Z,1022.54
2023-02-28T00:03:19.064Z,1022.55
2023-02-28T00:04:19.014Z,1022.53
2023-02-28T00:05:18.995Z,1022.62
2023-02-28T00:06:18.976Z,1022.60
2023-02-28T00:07:18.963Z,1022.61
2023-02-28T00:08:18.957Z,1022.58
2023-02-28T00:09:18.936Z,1022.60
2023-02-28T00:10:18.950Z,1022.58
2023-02-28T00:11:18.916Z,1022.58
2023-02-28T00:12:19.077Z,1022.54
2023-02-28T00:13:18.924Z,1022.59
2023-02-28T00:14:18.890Z,1022.54
2023-02-28T00:15:18.877Z,1022.54
2023-02-28T00:16:18.903Z,1022.53
2023-02-28T00:17:19.144Z,1022.50
2023-02-28T00:18:19.527Z,1022.54
2023-02-28T00:19:19.492Z,1022.55
2023-02-28T00:20:18.842Z,1022.54
2023-02-28T00:21:19.890Z,1022.56
2023-02-28T00:22:18.850Z,1022.58
2023-02-28T00:23:19.154Z,1022.54
2023-02-28T00:24:19.484Z,1022.61
2023-02-28T00:25:20.929Z,1022.62
2023-02-28T00:26:21.933Z,1022.62
2023-02-28T00:27:19.635Z,1022.61
2023-02-28T00:28:18.747Z,1022.60
2023-02-28T00:29:18.738Z,1022.61
2023-02-28T00:30:18.757Z,1022.62
2023-02-28T00:31:18.785Z,1022.62
2023-02-28T00:32:18.982Z,1022.59
2023-02-28T00:33:19.461Z,1022.58
2023-02-28T00:34:18.686Z,1022.62
2023-02-28T00:35:18.782Z,1022.62
2023-02-28T00:36:19.011Z,1022.67
2023-02-28T00:37:19.147Z,1022.65
2023-02-28T00:38:18.650Z,1022.67
2023-02-28T00:39:24.793Z,1022.68
2023-02-28T00:40:19.714Z,1022.64
2023-02-28T00:41:20.862Z,1022.68
2023-02-28T00:42:22.510Z,1022.67
2023-02-28T00:43:20.133Z,1022.67
2023-02-28T00:44:18.576Z,1022.65
2023-02-28T00:45:18.557Z,1022.64
2023-02-28T00:46:21.670Z,1022.65
2023-02-28T00:47:18.539Z,1022.64
2023-02-28T00:48:20.546Z,1022.64
2023-02-28T00:49:19.063Z,1022.64
2023-02-28T00:50:19.830Z,1022.69
2023-02-28T00:51:19.782Z,1022.60
2023-02-28T00:52:19.505Z,1022.66
2023-02-28T00:53:19.668Z,1022.65
2023-02-28T00:54:18.465Z,1022.64
2023-02-28T00:55:19.553Z,1022.68
2023-02-28T00:56:18.493Z,1022.69
2023-02-28T00:57:18.537Z,1022.69
2023-02-28T00:58:18.436Z,1022.69
2023-02-28T00:59:18.433Z,1022.67
2023-02-28T01:00:18.412Z,1022.70
2023-02-28T01:01:18.429Z,1022.73
2023-02-28T01:02:18.378Z,1022.71
2023-02-28T01:03:18.373Z,1022.72
2023-02-28T01:04:18.382Z,1022.72
2023-02-28T01:05:18.362Z,1022.74
2023-02-28T01:06:18.347Z,1022.73
2023-02-28T01:07:18.337Z,1022.76
2023-02-28T01:08:18.324Z,1022.73
2023-02-28T01:09:18.299Z,1022.74
2023-02-28T01:10:18.328Z,1022.73
2023-02-28T01:11:18.316Z,1022.73
2023-02-28T01:12:18.278Z,1022.69
2023-02-28T01:13:18.266Z,1022.70
2023-02-28T01:14:18.257Z,1022.74
2023-02-28T01:15:18.245Z,1022.75
2023-02-28T01:16:18.258Z,1022.74
2023-02-28T01:17:18.232Z,1022.71
2023-02-28T01:18:18.217Z,1022.71
2023-02-28T01:19:18.212Z,1022.74
2023-02-28T01:20:18.196Z,1022.81
2023-02-28T01:21:18.188Z,1022.77
2023-02-28T01:22:18.182Z,1022.75
2023-02-28T01:23:18.154Z,1022.74
2023-02-28T01:24:18.175Z,1022.76
2023-02-28T01:25:18.182Z,1022.74
2023-02-28T01:26:18.158Z,1022.79
2023-02-28T01:27:18.108Z,1022.78
2023-02-28T01:28:18.116Z,1022.74
2023-02-28T01:29:18.101Z,1022.75
2023-02-28T01:30:18.087Z,1022.80
2023-02-28T01:31:18.223Z,1022.77
2023-02-28T01:32:18.078Z,1022.79
2023-02-28T01:33:18.049Z,1022.75
2023-02-28T01:34:18.046Z,1022.76
2023-02-28T01:35:18.027Z,1022.77
2023-02-28T01:36:18.034Z,1022.77
2023-02-28T01:37:18.007Z,1022.75
2023-02-28T01:38:22.911Z,1022.76
2023-02-28T01:39:18.985Z,1022.77
2023-02-28T01:40:18.027Z,1022.72
2023-02-28T01:41:17.993Z,1022.71
2023-02-28T01:42:17.973Z,1022.72
2023-02-28T01:43:17.945Z,1022.71
2023-02-28T01:44:17.934Z,1022.74
2023-02-28T01:45:17.922Z,1022.73
2023-02-28T01:46:17.964Z,1022.71
2023-02-28T01:47:17.903Z,1022.66
2023-02-28T01:48:17.900Z,1022.68
2023-02-28T01:49:17.874Z,1022.65
2023-02-28T01:50:17.902Z,1022.67
2023-02-28T01:51:17.862Z,1022.69
2023-02-28T01:52:17.853Z,1022.64
2023-02-28T01:53:17.844Z,1022.67
2023-02-28T01:54:17.832Z,1022.61
2023-02-28T01:55:17.812Z,1022.60
2023-02-28T01:56:17.851Z,1022.60
2023-02-28T01:57:17.790Z,1022.61
2023-02-28T01:58:17.791Z,1022.57
2023-02-28T01:59:17.778Z,1022.56
2023-02-28T02:00:17.774Z,1022.59
2023-02-28T02:01:17.856Z,1022.55
2023-02-28T02:02:17.772Z,1022.56
2023-02-28T02:03:17.729Z,1022.59
2023-02-28T02:04:17.721Z,1022.60
2023-02-28T02:05:17.709Z,1022.63
2023-02-28T02:06:17.710Z,1022.59
2023-02-28T02:07:17.692Z,1022.58
2023-02-28T02:08:17.820Z,1022.56
2023-02-28T02:09:17.672Z,1022.57
2023-02-28T02:10:17.679Z,1022.54
2023-02-28T02:11:17.660Z,1022.55
2023-02-28T02:12:17.629Z,1022.54
2023-02-28T02:13:17.630Z,1022.55
2023-02-28T02:14:17.610Z,1022.51
2023-02-28T02:15:17.600Z,1022.50
2023-02-28T02:16:17.622Z,1022.48
2023-02-28T02:17:17.590Z,1022.42
2023-02-28T02:18:17.571Z,1022.44
2023-02-28T02:19:17.579Z,1022.44
2023-02-28T02:20:17.634Z,1022.43
2023-02-28T02:21:17.560Z,1022.45
2023-02-28T02:22:17.531Z,1022.42
2023-02-28T02:23:17.523Z,1022.40
2023-02-28T02:24:17.520Z,1022.38
2023-02-28T02:25:17.509Z,1022.44
2023-02-28T02:26:17.510Z,1022.39
2023-02-28T02:27:17.479Z,1022.38
2023-02-28T02:28:17.472Z,1022.40
2023-02-28T02:29:17.561Z,1022.37
2023-02-28T02:30:18.663Z,1022.35
2023-02-28T02:31:17.617Z,1022.39
2023-02-28T02:32:17.538Z,1022.40
2023-02-28T02:33:17.422Z,1022.40
2023-02-28T02:34:17.421Z,1022.42
2023-02-28T02:35:17.391Z,1022.43
2023-02-28T02:36:17.420Z,1022.42
2023-02-28T02:37:17.409Z,1022.42
2023-02-28T02:38:17.368Z,1022.45
2023-02-28T02:39:17.359Z,1022.42
2023-02-28T02:40:17.369Z,1022.43
2023-02-28T02:41:17.480Z,1022.42
2023-02-28T02:42:17.321Z,1022.42
2023-02-28T02:43:17.314Z,1022.45
2023-02-28T02:44:17.299Z,1022.45
2023-02-28T02:45:17.288Z,1022.40
2023-02-28T02:46:17.374Z,1022.45
2023-02-28T02:47:17.270Z,1022.44
2023-02-28T02:48:17.249Z,1022.43
2023-02-28T02:49:17.289Z,1022.44
2023-02-28T02:50:17.328Z,1022.44
2023-02-28T02:51:17.245Z,1022.43
2023-02-28T02:52:17.212Z,1022.44
2023-02-28T02:53:17.211Z,1022.42
2023-02-28T02:54:17.235Z,1022.42
2023-02-28T02:55:17.190Z,1022.44
2023-02-28T02:56:17.199Z,1022.43
2023-02-28T02:57:17.179Z,1022.46
2023-02-28T02:58:17.161Z,1022.51
2023-02-28T02:59:17.150Z,1022.47
2023-02-28T03:00:17.159Z,1022.48
2023-02-28T03:01:17.198Z,1022.47
2023-02-28T03:02:17.113Z,1022.45
2023-02-28T03:03:17.099Z,1022.47
2023-02-28T03:04:17.091Z,1022.37
2023-02-28T03:05:17.090Z,1022.42
2023-02-28T03:06:17.102Z,1022.48
2023-02-28T03:07:17.057Z,1022.52
2023-02-28T03:08:17.094Z,1022.51
2023-02-28T03:09:17.038Z,1022.49
2023-02-28T03:10:17.022Z,1022.50
2023-02-28T03:11:17.033Z,1022.49
2023-02-28T03:12:17.001Z,1022.49
2023-02-28T03:13:17.007Z,1022.49
2023-02-28T03:14:17.032Z,1022.47
2023-02-28T03:15:16.979Z,1022.48
2023-02-28T03:16:17.026Z,1022.45
2023-02-28T03:17:16.961Z,1022.44
2023-02-28T03:18:16.941Z,1022.39
2023-02-28T03:19:16.940Z,1022.48
2023-02-28T03:20:16.933Z,1022.47
2023-02-28T03:21:16.937Z,1022.45
2023-02-28T03:22:16.903Z,1022.43
2023-02-28T03:23:16.891Z,1022.39
2023-02-28T03:24:16.886Z,1022.44
2023-02-28T03:25:16.872Z,1022.39
2023-02-28T03:26:16.873Z,1022.43
2023-02-28T03:27:16.854Z,1022.41
2023-02-28T03:28:16.847Z,1022.44
2023-02-28T03:29:16.851Z,1022.42
2023-02-28T03:30:16.830Z,1022.40
2023-02-28T03:31:16.905Z,1022.40
2023-02-28T03:32:16.929Z,1022.38
2023-02-28T03:33:16.793Z,1022.38
2023-02-28T03:34:16.774Z,1022.33
2023-02-28T03:35:16.826Z,1022.37
2023-02-28T03:36:16.795Z,1022.39
2023-02-28T03:37:16.799Z,1022.42
2023-02-28T03:38:16.736Z,1022.41
2023-02-28T03:39:16.725Z,1022.39
2023-02-28T03:40:16.716Z,1022.37
2023-02-28T03:41:16.714Z,1022.39
2023-02-28T03:42:16.761Z,1022.39
2023-02-28T03:43:16.712Z,1022.36
2023-02-28T03:44:16.681Z,1022.36
2023-02-28T03:45:16.664Z,1022.36
2023-02-28T03:46:16.907Z,1022.35
2023-02-28T03:47:16.666Z,1022.38
2023-02-28T03:48:16.686Z,1022.30
2023-02-28T03:49:16.732Z,1022.36
2023-02-28T03:50:16.664Z,1022.41
2023-02-28T03:51:16.723Z,1022.35
2023-02-28T03:52:16.629Z,1022.36
2023-02-28T03:53:16.621Z,1022.35
2023-02-28T03:54:16.567Z,1022.33
2023-02-28T03:55:16.568Z,1022.33
2023-02-28T03:56:16.596Z,1022.32
2023-02-28T03:57:16.561Z,1022.34
2023-02-28T03:58:16.571Z,1022.35
2023-02-28T03:59:16.533Z,1022.34
2023-02-28T04:00:16.525Z,1022.32
2023-02-28T04:01:16.688Z,1022.35
2023-02-28T04:02:16.730Z,1022.35
2023-02-28T04:03:16.503Z,1022.35
2023-02-28T04:04:16.526Z,1022.34
2023-02-28T04:05:16.515Z,1022.33
2023-02-28T04:06:16.505Z,1022.35
2023-02-28T04:07:16.934Z,1022.38
2023-02-28T04:08:16.453Z,1022.35
2023-02-28T04:09:17.444Z,1022.38
2023-02-28T04:10:16.416Z,1022.40
2023-02-28T04:11:16.400Z,1022.37
2023-02-28T04:12:16.392Z,1022.43
2023-02-28T04:13:16.374Z,1022.42
2023-02-28T04:14:16.384Z,1022.40
2023-02-28T04:15:16.364Z,1022.40
2023-02-28T04:16:32.128Z,1022.37
2023-02-28T04:17:17.333Z,1022.36
2023-02-28T04:18:16.332Z,1022.41
2023-02-28T04:19:16.329Z,1022.37
2023-02-28T04:20:16.312Z,1022.40
2023-02-28T04:21:16.294Z,1022.39
2023-02-28T04:22:16.303Z,1022.41
2023-02-28T04:23:16.276Z,1022.45
2023-02-28T04:24:16.261Z,1022.43
2023-02-28T04:25:16.245Z,1022.47
2023-02-28T04:26:16.236Z,1022.50
2023-02-28T04:27:16.232Z,1022.48
2023-02-28T04:28:16.222Z,1022.53
2023-02-28T04:29:16.265Z,1022.52
2023-02-28T04:30:16.303Z,1022.53
2023-02-28T04:31:16.203Z,1022.51
2023-02-28T04:32:16.443Z,1022.49
2023-02-28T04:33:16.184Z,1022.54
2023-02-28T04:34:16.174Z,1022.54
2023-02-28T04:35:16.213Z,1022.50
2023-02-28T04:36:16.144Z,1022.53
2023-02-28T04:37:16.143Z,1022.50
2023-02-28T04:38:16.114Z,1022.56
2023-02-28T04:39:16.095Z,1022.54
2023-02-28T04:40:16.093Z,1022.53
2023-02-28T04:41:16.076Z,1022.52
2023-02-28T04:42:16.074Z,1022.57
2023-02-28T04:43:16.053Z,1022.56
2023-02-28T04:44:16.052Z,1022.50
2023-02-28T04:45:16.041Z,1022.55
2023-02-28T04:46:16.069Z,1022.55
2023-02-28T04:47:16.032Z,1022.55
2023-02-28T04:48:16.040Z,1022.57
2023-02-28T04:49:15.992Z,1022.56
2023-02-28T04:50:16.005Z,1022.57
2023-02-28T04:51:15.968Z,1022.58
2023-02-28T04:52:16.124Z,1022.57
2023-02-28T04:53:15.949Z,1022.53
2023-02-28T04:54:15.944Z,1022.56
2023-02-28T04:55:15.981Z,1022.58
2023-02-28T04:56:16.032Z,1022.60
2023-02-28T04:57:15.917Z,1022.59
2023-02-28T04:58:15.908Z,1022.59
2023-02-28T04:59:15.891Z,1022.57
2023-02-28T05:00:15.887Z,1022.61
2023-02-28T05:01:15.873Z,1022.62
2023-02-28T05:02:15.947Z,1022.62
2023-02-28T05:03:15.857Z,1022.63
2023-02-28T05:04:15.884Z,1022.65
2023-02-28T05:05:15.826Z,1022.62
2023-02-28T05:06:15.816Z,1022.66
2023-02-28T05:07:15.824Z,1022.67
2023-02-28T05:08:15.836Z,1022.67
2023-02-28T05:09:15.778Z,1022.65
2023-02-28T05:10:15.790Z,1022.69
2023-02-28T05:11:15.765Z,1022.66
2023-02-28T05:12:15.807Z,1022.73
2023-02-28T05:13:15.747Z,1022.72
2023-02-28T05:14:15.777Z,1022.71
2023-02-28T05:15:15.721Z,1022.71
2023-02-28T05:16:15.739Z,1022.74
2023-02-28T05:17:15.719Z,1022.74
2023-02-28T05:18:15.687Z,1022.74
2023-02-28T05:19:15.957Z,1022.73
2023-02-28T05:20:16.354Z,1022.73
2023-02-28T05:21:15.665Z,1022.72
2023-02-28T05:22:15.750Z,1022.75
2023-02-28T05:23:15.636Z,1022.77
2023-02-28T05:24:15.676Z,1022.74
2023-02-28T05:25:15.623Z,1022.72
2023-02-28T05:26:15.607Z,1022.71
2023-02-28T05:27:15.608Z,1022.75
2023-02-28T05:28:15.640Z,1022.74
2023-02-28T05:29:15.587Z,1022.76
2023-02-28T05:30:15.605Z,1022.76
2023-02-28T05:31:15.557Z,1022.77
2023-02-28T05:32:15.642Z,1022.77
2023-02-28T05:33:15.679Z,1022.77
2023-02-28T05:34:15.524Z,1022.79
2023-02-28T05:35:15.521Z,1022.81
2023-02-28T05:36:15.536Z,1022.79
2023-02-28T05:37:15.499Z,1022.77
2023-02-28T05:38:15.628Z,1022.77
2023-02-28T05:39:15.465Z,1022.74
2023-02-28T05:40:15.596Z,1022.76
2023-02-28T05:41:15.467Z,1022.77
2023-02-28T05:42:15.720Z,1022.78
2023-02-28T05:43:15.435Z,1022.79
2023-02-28T05:44:15.415Z,1022.79
2023-02-28T05:45:15.900Z,1022.83
2023-02-28T05:46:15.418Z,1022.83
2023-02-28T05:47:15.437Z,1022.83
2023-02-28T05:48:15.458Z,1022.83
2023-02-28T05:49:15.365Z,1022.83
2023-02-28T05:50:15.383Z,1022.81
2023-02-28T05:51:15.343Z,1022.75
2023-02-28T05:52:15.352Z,1022.81
2023-02-28T05:53:15.325Z,1022.80
2023-02-28T05:54:15.327Z,1022.78
2023-02-28T05:55:15.317Z,1022.78
2023-02-28T05:56:15.291Z,1022.78
2023-02-28T05:57:22.883Z,1022.76
2023-02-28T05:58:16.409Z,1022.78
2023-02-28T05:59:15.302Z,1022.76
2023-02-28T06:00:15.377Z,1022.76
2023-02-28T06:01:15.248Z,1022.81
2023-02-28T06:02:15.369Z,1022.79
2023-02-28T06:03:15.266Z,1022.80
2023-02-28T06:04:30.373Z,1022.76
2023-02-28T06:05:16.207Z,1022.78
2023-02-28T06:06:15.193Z,1022.79
2023-02-28T06:07:15.196Z,1022.77
2023-02-28T06:08:15.170Z,1022.77
2023-02-28T06:09:15.168Z,1022.74
2023-02-28T06:10:15.168Z,1022.78
2023-02-28T06:11:15.141Z,1022.74
2023-02-28T06:12:15.226Z,1022.77
2023-02-28T06:13:15.128Z,1022.76
2023-02-28T06:14:15.157Z,1022.77
2023-02-28T06:15:15.146Z,1022.76
2023-02-28T06:16:15.240Z,1022.80
2023-02-28T06:17:15.100Z,1022.82
2023-02-28T06:18:15.079Z,1022.78
2023-02-28T06:19:15.109Z,1022.84
2023-02-28T06:20:15.069Z,1022.82
2023-02-28T06:21:15.101Z,1022.85
2023-02-28T06:22:15.039Z,1022.83
2023-02-28T06:23:15.018Z,1022.87
2023-02-28T06:24:15.058Z,1022.89
2023-02-28T06:25:15.001Z,1022.90
2023-02-28T06:26:15.031Z,1022.91
2023-02-28T06:27:14.980Z,1022.89
2023-02-28T06:28:14.990Z,1022.90
2023-02-28T06:29:14.952Z,1022.89
2023-02-28T06:30:15.113Z,1022.94
2023-02-28T06:31:14.983Z,1022.94
2023-02-28T06:32:14.977Z,1022.94
2023-02-28T06:33:14.919Z,1022.94
2023-02-28T06:34:15.273Z,1022.95
2023-02-28T06:35:14.895Z,1022.98
2023-02-28T06:36:14.890Z,1022.97
2023-02-28T06:37:14.891Z,1023.02
2023-02-28T06:38:14.901Z,1023.02
2023-02-28T06:39:14.855Z,1023.00
2023-02-28T06:40:14.855Z,1023.01
2023-02-28T06:41:14.831Z,1023.04
2023-02-28T06:42:15.099Z,1023.06
2023-02-28T06:43:14.839Z,1023.04
2023-02-28T06:44:14.804Z,1023.04
2023-02-28T06:45:14.789Z,1023.02
2023-02-28T06:46:14.931Z,1023.04
2023-02-28T06:47:14.773Z,1023.06
2023-02-28T06:48:14.765Z,1023.10
2023-02-28T06:49:14.742Z,1023.10
2023-02-28T06:50:14.803Z,1023.16
2023-02-28T06:51:14.725Z,1023.12
2023-02-28T06:52:14.822Z,1023.15
2023-02-28T06:53:14.711Z,1023.14
2023-02-28T06:54:14.743Z,1023.20
2023-02-28T06:55:14.683Z,1023.17
2023-02-28T06:56:14.711Z,1023.16
2023-02-28T06:57:14.666Z,1023.18
2023-02-28T06:58:14.776Z,1023.20
2023-02-28T06:59:14.644Z,1023.19
2023-02-28T07:00:14.783Z,1023.19
2023-02-28T07:01:14.684Z,1023.22
2023-02-28T07:02:14.621Z,1023.20
2023-02-28T07:03:14.604Z,1023.24
2023-02-28T07:04:14.683Z,1023.22
2023-02-28T07:05:14.585Z,1023.28
2023-02-28T07:06:14.578Z,1023.29
2023-02-28T07:07:14.564Z,1023.32
2023-02-28T07:08:14.697Z,1023.33
2023-02-28T07:09:14.689Z,1023.31
2023-02-28T07:10:14.636Z,1023.28
2023-02-28T07:11:14.516Z,1023.28
2023-02-28T07:12:14.569Z,1023.29
2023-02-28T07:13:14.498Z,1023.25
2023-02-28T07:14:14.488Z,1023.28
2023-02-28T07:15:14.514Z,1023.19
2023-02-28T07:16:14.573Z,1023.24
2023-02-28T07:17:14.506Z,1023.23
2023-02-28T07:18:14.707Z,1023.25
2023-02-28T07:19:14.425Z,1023.20
2023-02-28T07:20:14.635Z,1023.24
2023-02-28T07:21:14.400Z,1023.27
2023-02-28T07:22:15.974Z,1023.26
2023-02-28T07:23:14.445Z,1023.26
2023-02-28T07:24:14.404Z,1023.27
2023-02-28T07:25:14.423Z,1023.29
2023-02-28T07:26:14.403Z,1023.31
2023-02-28T07:27:14.345Z,1023.29
2023-02-28T07:28:14.346Z,1023.26
2023-02-28T07:29:14.332Z,1023.21
2023-02-28T07:30:14.348Z,1023.20
2023-02-28T07:31:14.347Z,1023.25
2023-02-28T07:32:14.626Z,1023.23
2023-02-28T07:33:14.275Z,1023.23
2023-02-28T07:34:14.275Z,1023.20
2023-02-28T07:35:14.277Z,1023.18
2023-02-28T07:36:14.314Z,1023.14
2023-02-28T07:37:14.385Z,1023.22
2023-02-28T07:38:14.255Z,1023.11
2023-02-28T07:39:14.227Z,1023.14
2023-02-28T07:40:14.247Z,1023.15
2023-02-28T07:41:14.248Z,1023.13
2023-02-28T07:42:14.228Z,1023.16
2023-02-28T07:43:14.184Z,1023.13
2023-02-28T07:44:14.172Z,1023.18
2023-02-28T07:45:14.169Z,1023.19
2023-02-28T07:46:14.237Z,1023.14
2023-02-28T07:47:14.644Z,1023.12
2023-02-28T07:48:15.471Z,1023.11
2023-02-28T07:49:14.293Z,1023.11
2023-02-28T07:50:14.504Z,1023.13
2023-02-28T07:51:14.885Z,1023.16
2023-02-28T07:52:15.380Z,1023.13
2023-02-28T07:53:16.364Z,1023.13
2023-02-28T07:54:14.975Z,1023.11
2023-02-28T07:55:16.522Z,1023.07
2023-02-28T07:56:16.759Z,1023.08
2023-02-28T07:57:14.053Z,1023.09
2023-02-28T07:58:14.601Z,1023.08
2023-02-28T07:59:14.064Z,1023.14
2023-02-28T08:00:14.151Z,1023.19
2023-02-28T08:01:13.994Z,1023.20
2023-02-28T08:02:14.115Z,1023.26
2023-02-28T08:03:14.406Z,1023.23
2023-02-28T08:04:14.205Z,1023.22
2023-02-28T08:05:14.956Z,1023.22
2023-02-28T08:06:14.191Z,1023.25
2023-02-28T08:07:14.303Z,1023.25
2023-02-28T08:08:14.338Z,1023.23
2023-02-28T08:09:13.928Z,1023.26
2023-02-28T08:10:14.368Z,1023.27
2023-02-28T08:11:13.933Z,1023.24
2023-02-28T08:12:13.883Z,1023.26
2023-02-28T08:13:14.499Z,1023.28
2023-02-28T08:14:13.877Z,1023.24
2023-02-28T08:15:14.037Z,1023.20
2023-02-28T08:16:13.880Z,1023.25
2023-02-28T08:17:13.835Z,1023.22
2023-02-28T08:18:13.844Z,1023.20
2023-02-28T08:19:13.794Z,1023.23
2023-02-28T08:20:13.776Z,1023.23
2023-02-28T08:21:13.902Z,1023.25
2023-02-28T08:22:13.865Z,1023.21
2023-02-28T08:23:14.879Z,1023.27
2023-02-28T08:24:13.743Z,1023.24
2023-02-28T08:25:13.853Z,1023.22
2023-02-28T08:26:13.806Z,1023.20
2023-02-28T08:27:13.711Z,1023.20
2023-02-28T08:28:13.985Z,1023.22
2023-02-28T08:29:13.767Z,1023.24
2023-02-28T08:30:14.351Z,1023.24
2023-02-28T08:31:14.134Z,1023.28
2023-02-28T08:32:28.987Z,1023.28
2023-02-28T08:33:14.772Z,1023.28
2023-02-28T08:34:14.198Z,1023.28
2023-02-28T08:35:13.618Z,1023.30
2023-02-28T08:36:13.669Z,1023.28
2023-02-28T08:37:13.619Z,1023.28
2023-02-28T08:38:13.731Z,1023.28
2023-02-28T08:39:13.603Z,1023.32
2023-02-28T08:40:13.796Z,1023.30
2023-02-28T08:41:14.369Z,1023.29
2023-02-28T08:42:13.556Z,1023.29
2023-02-28T08:43:13.536Z,1023.28
2023-02-28T08:44:14.218Z,1023.30
2023-02-28T08:45:13.654Z,1023.33
2023-02-28T08:46:13.768Z,1023.34
2023-02-28T08:47:13.504Z,1023.31
2023-02-28T08:48:13.525Z,1023.30
2023-02-28T08:49:13.596Z,1023.30
2023-02-28T08:50:14.123Z,1023.27
2023-02-28T08:51:13.466Z,1023.29
2023-02-28T08:52:13.483Z,1023.33
2023-02-28T08:53:13.441Z,1023.28
2023-02-28T08:54:13.598Z,1023.29
2023-02-28T08:55:13.421Z,1023.36
2023-02-28T08:56:14.178Z,1023.30
2023-02-28T08:57:13.533Z,1023.30
2023-02-28T08:58:13.430Z,1023.29
2023-02-28T08:59:13.489Z,1023.35
2023-02-28T09:00:13.390Z,1023.35
2023-02-28T09:01:13.396Z,1023.34
2023-02-28T09:02:13.349Z,1023.35
2023-02-28T09:03:13.381Z,1023.31
2023-02-28T09:04:14.588Z,1023.31
2023-02-28T09:05:13.517Z,1023.30
2023-02-28T09:06:13.443Z,1023.28
2023-02-28T09:07:13.290Z,1023.25
2023-02-28T09:08:13.383Z,1023.23
2023-02-28T09:09:14.072Z,1023.26
2023-02-28T09:10:14.069Z,1023.31
2023-02-28T09:11:13.552Z,1023.28
2023-02-28T09:12:13.327Z,1023.28
2023-02-28T09:13:13.288Z,1023.25
2023-02-28T09:14:16.550Z,1023.29
2023-02-28T09:15:13.181Z,1023.27
2023-02-28T09:16:13.242Z,1023.22
2023-02-28T09:17:13.196Z,1023.22
2023-02-28T09:18:13.281Z,1023.27
2023-02-28T09:19:13.754Z,1023.27
2023-02-28T09:20:13.372Z,1023.21
2023-02-28T09:21:13.284Z,1023.23
2023-02-28T09:22:13.131Z,1023.24
2023-02-28T09:23:13.191Z,1023.24
2023-02-28T09:24:13.297Z,1023.23
2023-02-28T09:25:13.687Z,1023.25
2023-02-28T09:26:13.094Z,1023.19
2023-02-28T09:27:13.062Z,1023.21
2023-02-28T09:28:13.265Z,1023.15
2023-02-28T09:29:13.048Z,1023.21
2023-02-28T09:30:13.092Z,1023.23
2023-02-28T09:31:14.310Z,1023.17
2023-02-28T09:32:14.530Z,1023.23
2023-02-28T09:33:13.831Z,1023.20
2023-02-28T09:34:13.926Z,1023.22
2023-02-28T09:35:13.017Z,1023.19
2023-02-28T09:36:13.046Z,1023.18
2023-02-28T09:37:12.992Z,1023.21
2023-02-28T09:38:12.957Z,1023.19
2023-02-28T09:39:12.929Z,1023.18
2023-02-28T09:40:13.563Z,1023.22
2023-02-28T09:41:13.056Z,1023.16
2023-02-28T09:42:12.907Z,1023.11
2023-02-28T09:43:12.886Z,1023.14
2023-02-28T09:44:13.442Z,1023.23
2023-02-28T09:45:12.868Z,1023.16
2023-02-28T09:46:13.725Z,1023.11
2023-02-28T09:47:12.859Z,1023.12
2023-02-28T09:48:12.819Z,1023.11
2023-02-28T09:49:12.838Z,1023.12
2023-02-28T09:50:13.131Z,1023.15
2023-02-28T09:51:13.185Z,1023.10
2023-02-28T09:52:14.237Z,1023.09
2023-02-28T09:53:12.868Z,1023.13
2023-02-28T09:54:13.930Z,1023.11
2023-02-28T09:55:13.711Z,1023.09
2023-02-28T09:56:12.795Z,1023.10
2023-02-28T09:57:12.735Z,1023.16
2023-02-28T09:58:12.713Z,1023.18
2023-02-28T09:59:13.094Z,1023.14
2023-02-28T10:00:12.946Z,1023.08
2023-02-28T10:01:13.744Z,1023.03
2023-02-28T10:02:13.552Z,1023.00
2023-02-28T10:03:12.658Z,1022.98
2023-02-28T10:04:13.212Z,1023.03
2023-02-28T10:05:13.629Z,1023.05
2023-02-28T10:06:14.587Z,1023.04
2023-02-28T10:07:13.573Z,1023.01
2023-02-28T10:08:13.329Z,1023.03
2023-02-28T10:09:12.602Z,1023.08
2023-02-28T10:10:13.103Z,1023.03
2023-02-28T10:11:13.035Z,1022.98
2023-02-28T10:12:13.084Z,1022.92
2023-02-28T10:13:12.561Z,1022.93
2023-02-28T10:14:13.131Z,1022.89
2023-02-28T10:15:13.857Z,1022.99
2023-02-28T10:16:13.333Z,1023.01
2023-02-28T10:17:12.533Z,1022.93
2023-02-28T10:18:13.853Z,1022.94
2023-02-28T10:19:12.692Z,1022.94
2023-02-28T10:20:13.502Z,1022.62
2023-02-28T10:21:12.889Z,1022.91
2023-02-28T10:22:14.300Z,1022.96
2023-02-28T10:23:12.442Z,1022.76
2023-02-28T10:25:12.646Z,1022.90
2023-02-28T10:26:12.504Z,1022.86
2023-02-28T10:27:12.954Z,1022.88
2023-02-28T10:28:12.562Z,1022.83
2023-02-28T10:29:14.529Z,1022.83
2023-02-28T10:30:12.366Z,1022.80
2023-02-28T10:31:13.217Z,1022.76
2023-02-28T10:32:12.369Z,1022.76
2023-02-28T10:33:12.346Z,1022.86
2023-02-28T10:34:12.551Z,1022.83
2023-02-28T10:35:12.490Z,1022.81
2023-02-28T10:36:12.323Z,1022.75
2023-02-28T10:37:15.357Z,1022.76
2023-02-28T10:38:12.682Z,1022.74
2023-02-28T10:39:12.260Z,1022.77
2023-02-28T10:40:14.762Z,1022.81
2023-02-28T10:41:12.402Z,1022.78
2023-02-28T10:42:14.701Z,1022.71
2023-02-28T10:43:12.568Z,1022.70
2023-02-28T10:44:12.498Z,1022.70
2023-02-28T10:45:12.194Z,1022.50
2023-02-28T10:46:13.383Z,1022.64
2023-02-28T10:47:12.224Z,1022.50
2023-02-28T10:48:12.236Z,1022.48
2023-02-28T10:49:13.250Z,1022.65
2023-02-28T10:50:12.145Z,1022.62
2023-02-28T10:51:12.214Z,1022.30
2023-02-28T10:52:13.244Z,1022.40
2023-02-28T10:53:12.697Z,1022.59
2023-02-28T10:54:12.675Z,1022.56
2023-02-28T10:55:13.661Z,1022.58
2023-02-28T10:56:13.460Z,1022.53
2023-02-28T10:57:12.688Z,1022.54
2023-02-28T10:58:12.097Z,1022.52
2023-02-28T10:59:14.087Z,1022.47
2023-02-28T11:00:12.039Z,1022.20
2023-02-28T11:01:12.087Z,1022.59
2023-02-28T11:02:12.059Z,1022.54
2023-02-28T11:03:12.997Z,1022.52
2023-02-28T11:04:11.993Z,1022.43
2023-02-28T11:05:13.047Z,1022.40
2023-02-28T11:06:13.529Z,1022.39
2023-02-28T11:07:12.664Z,1022.35
2023-02-28T11:08:13.644Z,1022.35
2023-02-28T11:09:11.921Z,1022.39
2023-02-28T11:10:13.599Z,1022.38
2023-02-28T11:11:11.909Z,1022.40
2023-02-28T11:12:11.961Z,1022.39
2023-02-28T11:13:11.887Z,1022.42
2023-02-28T11:14:12.499Z,1022.42
2023-02-28T11:15:11.860Z,1022.44
2023-02-28T11:16:11.911Z,1022.39
2023-02-28T11:17:12.007Z,1022.39
2023-02-28T11:18:11.885Z,1022.37
2023-02-28T11:19:12.003Z,1022.36
2023-02-28T11:20:11.897Z,1022.30
2023-02-28T11:21:11.794Z,1022.28
2023-02-28T11:22:12.358Z,1022.30
2023-02-28T11:23:11.822Z,1022.35
2023-02-28T11:24:11.824Z,1022.29
2023-02-28T11:25:11.763Z,1022.29
2023-02-28T11:26:12.030Z,1022.36
2023-02-28T11:27:11.757Z,1022.29
2023-02-28T11:28:11.736Z,1022.28
2023-02-28T11:29:12.041Z,1022.28
2023-02-28T11:30:12.265Z,1022.29
2023-02-28T11:31:12.355Z,1022.30
2023-02-28T11:32:11.798Z,1022.32
2023-02-28T11:33:11.701Z,1022.31
2023-02-28T11:34:11.765Z,1022.23
2023-02-28T11:35:12.443Z,1022.24
2023-02-28T11:36:12.431Z,1022.21
2023-02-28T11:37:11.658Z,1022.18
2023-02-28T11:38:11.949Z,1022.20
2023-02-28T11:39:11.603Z,1022.21
2023-02-28T11:40:12.681Z,1022.20
2023-02-28T11:41:12.214Z,1022.16
2023-02-28T11:42:12.327Z,1022.17
2023-02-28T11:43:11.570Z,1022.17
2023-02-28T11:44:11.675Z,1022.15
2023-02-28T11:45:11.779Z,1022.13
2023-02-28T11:46:11.539Z,1022.14
2023-02-28T11:47:11.874Z,1022.15
2023-02-28T11:48:12.046Z,1022.15
2023-02-28T11:49:11.553Z,1022.19
2023-02-28T11:50:11.645Z,1022.19
2023-02-28T11:51:11.476Z,1022.22
2023-02-28T11:52:11.566Z,1022.19
2023-02-28T11:53:11.456Z,1022.21
2023-02-28T11:54:11.497Z,1022.16
2023-02-28T11:55:11.439Z,1022.13
2023-02-28T11:56:11.428Z,1022.11
2023-02-28T11:57:11.424Z,1022.13
2023-02-28T11:58:11.424Z,1022.16
2023-02-28T11:59:11.407Z,1022.08
2023-02-28T12:00:11.445Z,1022.09
2023-02-28T12:01:11.431Z,1022.15
2023-02-28T12:02:11.404Z,1022.10
2023-02-28T12:03:11.397Z,1022.04
2023-02-28T12:04:11.359Z,1022.04
2023-02-28T12:05:11.331Z,1022.11
2023-02-28T12:06:11.333Z,1022.09